createdAt,value
2023-05-13T00:02:46.675Z,16.00341796875
2023-05-13T00:12:46.379Z,16.69921875
2023-05-13T00:22:46.318Z,17.00439453125
2023-05-13T00:32:46.311Z,17.5048828125
2023-05-13T00:42:46.236Z,17.7978515625
2023-05-13T00:52:46.085Z,17.7001953125
2023-05-13T01:02:46.118Z,18.10302734375
2023-05-13T01:12:46.008Z,18.20068359375
2023-05-13T01:22:46.161Z,18.505859375
2023-05-13T01:32:45.861Z,18.39599609375
2023-05-13T01:42:45.911Z,17.19970703125
2023-05-13T01:52:45.677Z,16.50390625
2023-05-13T02:02:45.688Z,16.50390625
2023-05-13T02:12:45.489Z,16.29638671875
2023-05-13T02:22:45.447Z,15.7958984375
2023-05-13T02:32:45.428Z,15.19775390625
2023-05-13T02:42:45.311Z,15.4052734375
2023-05-13T02:52:45.313Z,14.90478515625
2023-05-13T03:02:45.301Z,14.501953125
2023-05-13T03:12:45.054Z,14.09912109375
2023-05-13T03:22:45.017Z,14.00146484375
2023-05-13T03:32:45.099Z,13.6962890625
2023-05-13T03:42:44.986Z,13.5009765625
2023-05-13T03:52:46.804Z,13.3056640625
2023-05-13T04:02:45.216Z,13.09814453125
2023-05-13T04:12:44.640Z,13.00048828125
2023-05-13T04:22:44.830Z,12.80517578125
2023-05-13T04:32:44.532Z,12.59765625
2023-05-13T04:42:44.403Z,12.298583984375
2023-05-13T04:52:44.344Z,12.200927734375
2023-05-13T05:02:44.323Z,11.90185546875
2023-05-13T05:12:44.271Z,11.90185546875
2023-05-13T05:22:44.346Z,11.700439453125
2023-05-13T05:32:44.092Z,11.4990234375
2023-05-13T05:42:44.073Z,11.297607421875
2023-05-13T05:52:43.924Z,11.199951171875
2023-05-13T06:02:43.986Z,11.102294921875
2023-05-13T06:12:43.769Z,11.102294921875
2023-05-13T06:22:43.689Z,10.99853515625
2023-05-13T06:32:53.447Z,10.99853515625
2023-05-13T06:42:43.898Z,10.90087890625
2023-05-13T06:52:43.570Z,10.99853515625
2023-05-13T07:02:43.619Z,10.90087890625
2023-05-13T07:12:43.324Z,10.90087890625
2023-05-13T07:22:43.312Z,10.90087890625
2023-05-13T07:32:43.237Z,10.90087890625
2023-05-13T07:42:43.492Z,11.102294921875
2023-05-13T07:52:43.230Z,11.199951171875
2023-05-13T08:02:43.314Z,11.199951171875
2023-05-13T08:12:42.941Z,11.199951171875
2023-05-13T08:22:42.950Z,11.102294921875
2023-05-13T08:32:42.886Z,11.199951171875
2023-05-13T08:42:42.808Z,11.199951171875
2023-05-13T08:52:42.835Z,11.102294921875
2023-05-13T09:02:42.693Z,11.102294921875
2023-05-13T09:12:42.589Z,10.99853515625
2023-05-13T09:22:42.417Z,11.102294921875
2023-05-13T09:32:42.394Z,10.99853515625
2023-05-13T09:42:42.397Z,11.102294921875
2023-05-13T09:52:42.213Z,11.102294921875
2023-05-13T10:02:42.226Z,11.102294921875
2023-05-13T10:12:42.058Z,11.102294921875
2023-05-13T10:22:42.270Z,11.102294921875
2023-05-13T10:32:42.066Z,11.199951171875
2023-05-13T10:42:41.898Z,11.4013671875
2023-05-13T10:52:41.773Z,11.602783203125
2023-05-13T11:02:42.139Z,11.700439453125
2023-05-13T11:12:41.669Z,11.798095703125
2023-05-13T11:22:42.452Z,11.602783203125
2023-05-13T11:32:42.215Z,11.700439453125
2023-05-13T11:42:41.800Z,11.90185546875
2023-05-13T11:52:42.705Z,11.700439453125
2023-05-13T12:02:41.434Z,11.602783203125
2023-05-13T12:12:41.446Z,11.602783203125
2023-05-13T12:22:42.098Z,11.700439453125
2023-05-13T12:32:41.895Z,11.90185546875
2023-05-13T12:42:41.204Z,11.798095703125
2023-05-13T12:52:40.923Z,12.09716796875
2023-05-13T13:02:41.513Z,11.90185546875
2023-05-13T13:12:40.782Z,11.99951171875
2023-05-13T13:22:41.298Z,12.09716796875
2023-05-13T13:32:40.701Z,11.99951171875
2023-05-13T13:42:44.523Z,12.200927734375
2023-05-13T13:52:40.511Z,12.09716796875
2023-05-13T14:02:40.518Z,11.602783203125
2023-05-13T14:12:40.379Z,12.09716796875
2023-05-13T14:22:40.895Z,11.99951171875
2023-05-13T14:32:40.284Z,12.298583984375
2023-05-13T14:42:40.318Z,12.09716796875
2023-05-13T14:52:40.083Z,12.09716796875
2023-05-13T15:02:40.132Z,12.09716796875
2023-05-13T15:12:40.020Z,11.90185546875
2023-05-13T15:22:39.861Z,12.200927734375
2023-05-13T15:32:39.892Z,11.99951171875
2023-05-13T15:42:39.854Z,11.798095703125
2023-05-13T15:52:39.666Z,12.40234375
2023-05-13T16:02:39.746Z,12.200927734375
2023-05-13T16:12:39.524Z,12.298583984375
2023-05-13T16:22:39.534Z,12.09716796875
2023-05-13T16:32:39.383Z,12.298583984375
2023-05-13T16:42:39.563Z,11.798095703125
2023-05-13T16:52:39.191Z,11.90185546875
2023-05-13T17:02:39.288Z,11.602783203125
2023-05-13T17:12:39.072Z,11.602783203125
2023-05-13T17:22:39.109Z,11.798095703125
2023-05-13T17:32:38.981Z,11.700439453125
2023-05-13T17:42:38.984Z,11.90185546875
2023-05-13T17:52:38.796Z,11.700439453125
2023-05-13T18:02:39.134Z,11.90185546875
2023-05-13T18:12:38.729Z,11.99951171875
2023-05-13T18:22:38.584Z,11.798095703125
2023-05-13T18:32:38.538Z,11.90185546875
2023-05-13T18:42:38.498Z,12.09716796875
2023-05-13T18:52:38.337Z,11.99951171875
2023-05-13T19:02:39.140Z,12.200927734375
2023-05-13T19:12:38.233Z,12.09716796875
2023-05-13T19:22:38.156Z,12.298583984375
2023-05-13T19:32:38.073Z,12.200927734375
2023-05-13T19:42:38.376Z,12.40234375
2023-05-13T19:52:37.969Z,12.40234375
2023-05-13T20:02:37.993Z,12.5
2023-05-13T20:12:37.812Z,12.5
2023-05-13T20:22:37.924Z,12.6953125
2023-05-13T20:32:37.761Z,12.6953125
2023-05-13T20:42:37.781Z,12.40234375
2023-05-13T20:52:37.488Z,12.298583984375
2023-05-13T21:02:37.495Z,12.298583984375
2023-05-13T21:12:37.353Z,12.40234375
2023-05-13T21:22:37.389Z,12.59765625
2023-05-13T21:32:37.247Z,12.6953125
2023-05-13T21:42:37.170Z,12.6953125
2023-05-13T21:52:37.056Z,12.90283203125
2023-05-13T22:02:37.405Z,13.3056640625
2023-05-13T22:12:36.940Z,14.00146484375
2023-05-13T22:22:37.092Z,14.697265625
2023-05-13T22:32:36.930Z,15.6005859375
2023-05-13T22:42:36.718Z,15.90576171875
2023-05-13T22:52:36.650Z,15.19775390625
2023-05-13T23:02:36.580Z,14.697265625
2023-05-13T23:12:36.472Z,14.794921875
2023-05-13T23:22:36.448Z,14.90478515625
2023-05-13T23:32:36.538Z,15.00244140625
2023-05-13T23:42:36.268Z,15.6005859375
2023-05-13T23:52:36.311Z,15.6982421875
